Waldo, Illinois
Current Conditions -  °F | °C
As of 8:15 AM on Thursday 29 Jan 2015 (Local Time) from KPNT Reporting Station
Haze Haze  
Wind Chill: 24°   Ceiling: 1500
Heat Index: 35°   Visibility: 5mi
Dew Point: 32°   Wind: 20mph
Humidity: 88%   Direction: 310°NW
Pressure: 29.85"   Gusts: 26mph
Location:  40.7423°N, 88.8872°W
Report Text: KPNT 291415Z AUTO 31017G23KT 5SM BR OVC015 02/00 A2985 RMK AO2 T00180000
Loading
Personal Weather Stations






























Interactive Weather Map New forecast layout! Learn more

10-Day Weather Forecast

Advertisements
Track Severe Weather on mobile